sensor_id;sensor_type;location;lat;lon;timestamp;pressure;altitude;pressure_sealevel;temperature
13410;BMP180;6775;49.574;11.170;2023-09-08T00:00:18;97871.50;;;16.19
13410;BMP180;6775;49.574;11.170;2023-09-08T00:02:46;97879.69;;;16.24
13410;BMP180;6775;49.574;11.170;2023-09-08T00:05:14;97875.25;;;16.34
13410;BMP180;6775;49.574;11.170;2023-09-08T00:07:43;97880.06;;;16.46
13410;BMP180;6775;49.574;11.170;2023-09-08T00:10:11;97877.09;;;16.59
13410;BMP180;6775;49.574;11.170;2023-09-08T00:12:39;97868.25;;;16.69
13410;BMP180;6775;49.574;11.170;2023-09-08T00:15:08;97867.81;;;16.56
13410;BMP180;6775;49.574;11.170;2023-09-08T00:17:38;97867.22;;;16.45
13410;BMP180;6775;49.574;11.170;2023-09-08T00:20:07;97870.28;;;16.40
13410;BMP180;6775;49.574;11.170;2023-09-08T00:22:37;97866.78;;;16.32
13410;BMP180;6775;49.574;11.170;2023-09-08T00:25:06;97870.41;;;16.21
13410;BMP180;6775;49.574;11.170;2023-09-08T00:27:34;97866.25;;;16.11
13410;BMP180;6775;49.574;11.170;2023-09-08T00:30:03;97860.97;;;16.03
13410;BMP180;6775;49.574;11.170;2023-09-08T00:32:31;97865.84;;;16.06
13410;BMP180;6775;49.574;11.170;2023-09-08T00:35:00;97870.16;;;16.15
13410;BMP180;6775;49.574;11.170;2023-09-08T00:37:28;97862.50;;;16.23
13410;BMP180;6775;49.574;11.170;2023-09-08T00:39:56;97864.94;;;16.24
13410;BMP180;6775;49.574;11.170;2023-09-08T00:42:24;97861.41;;;16.25
13410;BMP180;6775;49.574;11.170;2023-09-08T00:44:52;97868.88;;;16.28
13410;BMP180;6775;49.574;11.170;2023-09-08T00:47:20;97865.75;;;16.25
13410;BMP180;6775;49.574;11.170;2023-09-08T00:49:48;97869.19;;;16.16
13410;BMP180;6775;49.574;11.170;2023-09-08T00:52:19;97866.53;;;16.08
13410;BMP180;6775;49.574;11.170;2023-09-08T00:54:47;97866.16;;;16.03
13410;BMP180;6775;49.574;11.170;2023-09-08T00:57:15;97870.97;;;15.98
13410;BMP180;6775;49.574;11.170;2023-09-08T00:59:44;97875.47;;;15.96
13410;BMP180;6775;49.574;11.170;2023-09-08T01:02:12;97874.81;;;15.94
13410;BMP180;6775;49.574;11.170;2023-09-08T01:04:40;97867.97;;;15.93
13410;BMP180;6775;49.574;11.170;2023-09-08T01:07:09;97864.34;;;15.86
13410;BMP180;6775;49.574;11.170;2023-09-08T01:09:39;97869.06;;;15.73
13410;BMP180;6775;49.574;11.170;2023-09-08T01:12:09;97868.72;;;15.59
13410;BMP180;6775;49.574;11.170;2023-09-08T01:14:37;97868.38;;;15.45
13410;BMP180;6775;49.574;11.170;2023-09-08T01:17:05;97864.06;;;15.36
13410;BMP180;6775;49.574;11.170;2023-09-08T01:19:33;97867.22;;;15.30
13410;BMP180;6775;49.574;11.170;2023-09-08T01:22:45;97866.28;;;15.21
13410;BMP180;6775;49.574;11.170;2023-09-08T01:25:21;97867.25;;;15.11
13410;BMP180;6775;49.574;11.170;2023-09-08T01:27:52;97878.56;;;15.01
13410;BMP180;6775;49.574;11.170;2023-09-08T01:30:23;97869.56;;;14.95
13410;BMP180;6775;49.574;11.170;2023-09-08T01:32:53;97868.53;;;14.88
13410;BMP180;6775;49.574;11.170;2023-09-08T01:35:22;97875.03;;;14.92
13410;BMP180;6775;49.574;11.170;2023-09-08T01:37:51;97874.38;;;15.00
13410;BMP180;6775;49.574;11.170;2023-09-08T01:40:20;97863.31;;;15.07
13410;BMP180;6775;49.574;11.170;2023-09-08T01:42:50;97867.63;;;15.16
13410;BMP180;6775;49.574;11.170;2023-09-08T01:45:18;97874.72;;;15.23
13410;BMP180;6775;49.574;11.170;2023-09-08T01:47:46;97862.97;;;15.29
13410;BMP180;6775;49.574;11.170;2023-09-08T01:50:14;97865.28;;;15.32
13410;BMP180;6775;49.574;11.170;2023-09-08T01:52:48;97860.22;;;15.40
13410;BMP180;6775;49.574;11.170;2023-09-08T01:55:16;97853.91;;;15.52
13410;BMP180;6775;49.574;11.170;2023-09-08T01:57:46;97861.19;;;15.65
13410;BMP180;6775;49.574;11.170;2023-09-08T02:00:15;97855.56;;;15.70
13410;BMP180;6775;49.574;11.170;2023-09-08T02:02:43;97865.50;;;15.74
13410;BMP180;6775;49.574;11.170;2023-09-08T02:05:11;97854.47;;;15.72
13410;BMP180;6775;49.574;11.170;2023-09-08T02:07:40;97863.22;;;15.71
13410;BMP180;6775;49.574;11.170;2023-09-08T02:10:09;97861.84;;;15.67
13410;BMP180;6775;49.574;11.170;2023-09-08T02:12:38;97864.75;;;15.64
13410;BMP180;6775;49.574;11.170;2023-09-08T02:15:09;97864.09;;;15.63
13410;BMP180;6775;49.574;11.170;2023-09-08T02:17:38;97859.03;;;15.61
13410;BMP180;6775;49.574;11.170;2023-09-08T02:20:07;97864.09;;;15.63
13410;BMP180;6775;49.574;11.170;2023-09-08T02:22:35;97871.72;;;15.64
13410;BMP180;6775;49.574;11.170;2023-09-08T02:25:04;97865.53;;;15.65
13410;BMP180;6775;49.574;11.170;2023-09-08T02:27:32;97860.22;;;15.66
13410;BMP180;6775;49.574;11.170;2023-09-08T02:30:00;97868.56;;;15.61
13410;BMP180;6775;49.574;11.170;2023-09-08T02:32:30;97867.22;;;15.57
13410;BMP180;6775;49.574;11.170;2023-09-08T02:34:58;97868.34;;;15.54
13410;BMP180;6775;49.574;11.170;2023-09-08T02:37:26;97872.69;;;15.54
13410;BMP180;6775;49.574;11.170;2023-09-08T02:39:54;97860.56;;;15.54
13410;BMP180;6775;49.574;11.170;2023-09-08T02:42:22;97872.41;;;15.57
13410;BMP180;6775;49.574;11.170;2023-09-08T02:44:50;97876.19;;;15.62
13410;BMP180;6775;49.574;11.170;2023-09-08T02:47:18;97875.09;;;15.64
13410;BMP180;6775;49.574;11.170;2023-09-08T02:49:47;97875.34;;;15.71
13410;BMP180;6775;49.574;11.170;2023-09-08T02:52:15;97864.72;;;15.74
13410;BMP180;6775;49.574;11.170;2023-09-08T02:54:46;97873.66;;;15.79
13410;BMP180;6775;49.574;11.170;2023-09-08T02:57:14;97876.50;;;15.86
13410;BMP180;6775;49.574;11.170;2023-09-08T02:59:42;97873.09;;;15.85
13410;BMP180;6775;49.574;11.170;2023-09-08T03:02:10;97870.09;;;15.80
13410;BMP180;6775;49.574;11.170;2023-09-08T03:04:38;97870.03;;;15.72
13410;BMP180;6775;49.574;11.170;2023-09-08T03:07:08;97870.44;;;15.68
13410;BMP180;6775;49.574;11.170;2023-09-08T03:09:36;97871.00;;;15.62
13410;BMP180;6775;49.574;11.170;2023-09-08T03:12:04;97872.69;;;15.54
13410;BMP180;6775;49.574;11.170;2023-09-08T03:14:32;97866.06;;;15.42
13410;BMP180;6775;49.574;11.170;2023-09-08T03:17:00;97862.69;;;15.32
13410;BMP180;6775;49.574;11.170;2023-09-08T03:19:28;97869.25;;;15.26
13410;BMP180;6775;49.574;11.170;2023-09-08T03:21:56;97871.19;;;15.24
13410;BMP180;6775;49.574;11.170;2023-09-08T03:24:26;97871.47;;;15.21
13410;BMP180;6775;49.574;11.170;2023-09-08T03:26:53;97867.63;;;15.16
13410;BMP180;6775;49.574;11.170;2023-09-08T03:29:22;97857.03;;;15.10
13410;BMP180;6775;49.574;11.170;2023-09-08T03:31:50;97860.03;;;15.05
13410;BMP180;6775;49.574;11.170;2023-09-08T03:34:18;97861.81;;;15.05
13410;BMP180;6775;49.574;11.170;2023-09-08T03:36:49;97857.56;;;15.04
13410;BMP180;6775;49.574;11.170;2023-09-08T03:39:17;97857.06;;;15.00
13410;BMP180;6775;49.574;11.170;2023-09-08T03:41:47;97864.97;;;14.99
13410;BMP180;6775;49.574;11.170;2023-09-08T03:44:15;97860.22;;;14.94
13410;BMP180;6775;49.574;11.170;2023-09-08T03:46:43;97861.97;;;14.94
13410;BMP180;6775;49.574;11.170;2023-09-08T03:49:12;97863.06;;;14.91
13410;BMP180;6775;49.574;11.170;2023-09-08T03:51:40;97866.75;;;14.79
13410;BMP180;6775;49.574;11.170;2023-09-08T03:54:08;97856.28;;;14.62
13410;BMP180;6775;49.574;11.170;2023-09-08T03:56:36;97856.31;;;14.53
13410;BMP180;6775;49.574;11.170;2023-09-08T03:59:05;97855.34;;;14.54
13410;BMP180;6775;49.574;11.170;2023-09-08T04:01:33;97854.41;;;14.55
13410;BMP180;6775;49.574;11.170;2023-09-08T04:04:01;97849.22;;;14.55
13410;BMP180;6775;49.574;11.170;2023-09-08T04:06:29;97854.41;;;14.55
13410;BMP180;6775;49.574;11.170;2023-09-08T04:08:57;97853.59;;;14.54
13410;BMP180;6775;49.574;11.170;2023-09-08T04:11:26;97868.00;;;14.57
13410;BMP180;6775;49.574;11.170;2023-09-08T04:13:53;97870.59;;;14.57
13410;BMP180;6775;49.574;11.170;2023-09-08T04:16:23;97865.69;;;14.54
13410;BMP180;6775;49.574;11.170;2023-09-08T04:18:51;97867.34;;;14.55
13410;BMP180;6775;49.574;11.170;2023-09-08T04:21:22;97868.28;;;14.54
13410;BMP180;6775;49.574;11.170;2023-09-08T04:23:50;97865.44;;;14.47
13410;BMP180;6775;49.574;11.170;2023-09-08T04:26:18;97866.66;;;14.43
13410;BMP180;6775;49.574;11.170;2023-09-08T04:28:46;97877.41;;;14.39
13410;BMP180;6775;49.574;11.170;2023-09-08T04:31:14;97876.75;;;14.37
13410;BMP180;6775;49.574;11.170;2023-09-08T04:33:44;97873.06;;;14.30
13410;BMP180;6775;49.574;11.170;2023-09-08T04:36:13;97877.41;;;14.29
13410;BMP180;6775;49.574;11.170;2023-09-08T04:38:42;97876.72;;;14.27
13410;BMP180;6775;49.574;11.170;2023-09-08T04:41:11;97875.22;;;14.25
13410;BMP180;6775;49.574;11.170;2023-09-08T04:43:39;97872.38;;;14.28
13410;BMP180;6775;49.574;11.170;2023-09-08T04:46:07;97868.16;;;14.27
13410;BMP180;6775;49.574;11.170;2023-09-08T04:48:35;97878.38;;;14.28
13410;BMP180;6775;49.574;11.170;2023-09-08T04:51:08;97881.75;;;14.29
13410;BMP180;6775;49.574;11.170;2023-09-08T04:53:35;97878.38;;;14.28
13410;BMP180;6775;49.574;11.170;2023-09-08T04:56:04;97885.03;;;14.31
13410;BMP180;6775;49.574;11.170;2023-09-08T04:58:32;97888.97;;;14.35
13410;BMP180;6775;49.574;11.170;2023-09-08T05:01:01;97885.16;;;14.39
13410;BMP180;6775;49.574;11.170;2023-09-08T05:03:29;97881.38;;;14.43
13410;BMP180;6775;49.574;11.170;2023-09-08T05:05:57;97887.88;;;14.47
13410;BMP180;6775;49.574;11.170;2023-09-08T05:08:27;97882.72;;;14.47
13410;BMP180;6775;49.574;11.170;2023-09-08T05:10:55;97887.88;;;14.47
13410;BMP180;6775;49.574;11.170;2023-09-08T05:13:23;97877.81;;;14.44
13410;BMP180;6775;49.574;11.170;2023-09-08T05:15:57;97881.66;;;14.40
13410;BMP180;6775;49.574;11.170;2023-09-08T05:18:38;97884.06;;;14.32
13410;BMP180;6775;49.574;11.170;2023-09-08T05:21:06;97873.88;;;14.30
13410;BMP180;6775;49.574;11.170;2023-09-08T05:23:36;97878.63;;;14.35
13410;BMP180;6775;49.574;11.170;2023-09-08T05:26:04;97882.31;;;14.42
13410;BMP180;6775;49.574;11.170;2023-09-08T05:28:32;97891.16;;;14.49
13410;BMP180;6775;49.574;11.170;2023-09-08T05:31:04;97891.84;;;14.60
13410;BMP180;6775;49.574;11.170;2023-09-08T05:33:32;97882.16;;;14.71
13410;BMP180;6775;49.574;11.170;2023-09-08T05:36:01;97880.78;;;14.86
13410;BMP180;6775;49.574;11.170;2023-09-08T05:38:29;97893.00;;;15.03
13410;BMP180;6775;49.574;11.170;2023-09-08T05:40:58;97890.41;;;15.22
13410;BMP180;6775;49.574;11.170;2023-09-08T05:43:26;97892.91;;;15.41
13410;BMP180;6775;49.574;11.170;2023-09-08T05:45:54;97896.69;;;15.56
13410;BMP180;6775;49.574;11.170;2023-09-08T05:48:22;97896.09;;;15.71
13410;BMP180;6775;49.574;11.170;2023-09-08T05:50:50;97900.91;;;15.83
13410;BMP180;6775;49.574;11.170;2023-09-08T05:53:18;97903.47;;;15.93
13410;BMP180;6775;49.574;11.170;2023-09-08T05:55:46;97900.81;;;16.02
13410;BMP180;6775;49.574;11.170;2023-09-08T05:58:16;97897.22;;;16.13
13410;BMP180;6775;49.574;11.170;2023-09-08T06:00:44;97908.88;;;16.26
13410;BMP180;6775;49.574;11.170;2023-09-08T06:03:12;97914.53;;;16.39
13410;BMP180;6775;49.574;11.170;2023-09-08T06:05:40;97904.91;;;16.49
13410;BMP180;6775;49.574;11.170;2023-09-08T06:08:08;97902.91;;;16.60
13410;BMP180;6775;49.574;11.170;2023-09-08T06:10:37;97897.03;;;16.75
13410;BMP180;6775;49.574;11.170;2023-09-08T06:13:06;97908.03;;;16.95
13410;BMP180;6775;49.574;11.170;2023-09-08T06:15:36;97904.91;;;17.09
13410;BMP180;6775;49.574;11.170;2023-09-08T06:18:05;97890.56;;;17.22
13410;BMP180;6775;49.574;11.170;2023-09-08T06:20:33;97902.03;;;17.37
13410;BMP180;6775;49.574;11.170;2023-09-08T06:23:01;97893.81;;;17.49
13410;BMP180;6775;49.574;11.170;2023-09-08T06:25:29;97896.00;;;17.62
13410;BMP180;6775;49.574;11.170;2023-09-08T06:27:57;97901.25;;;17.77
13410;BMP180;6775;49.574;11.170;2023-09-08T06:30:25;97897.06;;;17.92
13410;BMP180;6775;49.574;11.170;2023-09-08T06:32:54;97900.72;;;18.07
13410;BMP180;6775;49.574;11.170;2023-09-08T06:35:22;97891.50;;;18.20
13410;BMP180;6775;49.574;11.170;2023-09-08T06:37:50;97891.69;;;18.35
13410;BMP180;6775;49.574;11.170;2023-09-08T06:40:18;97894.66;;;18.48
13410;BMP180;6775;49.574;11.170;2023-09-08T06:42:46;97888.66;;;18.63
13410;BMP180;6775;49.574;11.170;2023-09-08T06:45:14;97882.97;;;18.75
13410;BMP180;6775;49.574;11.170;2023-09-08T06:47:43;97881.66;;;18.87
13410;BMP180;6775;49.574;11.170;2023-09-08T06:50:13;97889.47;;;18.95
13410;BMP180;6775;49.574;11.170;2023-09-08T06:52:41;97891.44;;;19.09
13410;BMP180;6775;49.574;11.170;2023-09-08T06:55:09;97903.78;;;19.23
13410;BMP180;6775;49.574;11.170;2023-09-08T06:57:38;97889.47;;;19.27
13410;BMP180;6775;49.574;11.170;2023-09-08T07:00:07;97897.41;;;19.33
13410;BMP180;6775;49.574;11.170;2023-09-08T07:02:38;97892.03;;;19.43
13410;BMP180;6775;49.574;11.170;2023-09-08T07:05:07;97900.94;;;19.56
13410;BMP180;6775;49.574;11.170;2023-09-08T07:07:37;97897.19;;;19.67
13410;BMP180;6775;49.574;11.170;2023-09-08T07:10:07;97898.38;;;19.86
13410;BMP180;6775;49.574;11.170;2023-09-08T07:12:35;97904.16;;;20.12
13410;BMP180;6775;49.574;11.170;2023-09-08T07:15:04;97905.03;;;20.35
13410;BMP180;6775;49.574;11.170;2023-09-08T07:17:32;97906.69;;;20.58
13410;BMP180;6775;49.574;11.170;2023-09-08T07:20:00;97904.84;;;20.67
13410;BMP180;6775;49.574;11.170;2023-09-08T07:22:29;97913.91;;;20.78
13410;BMP180;6775;49.574;11.170;2023-09-08T07:24:58;97917.66;;;20.98
13410;BMP180;6775;49.574;11.170;2023-09-08T07:27:26;97912.66;;;21.11
13410;BMP180;6775;49.574;11.170;2023-09-08T07:29:54;97909.25;;;21.25
13410;BMP180;6775;49.574;11.170;2023-09-08T07:32:22;97900.91;;;21.44
13410;BMP180;6775;49.574;11.170;2023-09-08T07:34:51;97906.00;;;21.60
13410;BMP180;6775;49.574;11.170;2023-09-08T07:37:22;97902.91;;;21.71
13410;BMP180;6775;49.574;11.170;2023-09-08T07:39:51;97895.22;;;21.83
13410;BMP180;6775;49.574;11.170;2023-09-08T07:42:20;97896.31;;;21.89
13410;BMP180;6775;49.574;11.170;2023-09-08T07:44:48;97900.06;;;22.01
13410;BMP180;6775;49.574;11.170;2023-09-08T07:47:16;97896.63;;;22.15
13410;BMP180;6775;49.574;11.170;2023-09-08T07:49:46;97902.41;;;22.25
13410;BMP180;6775;49.574;11.170;2023-09-08T07:52:14;97901.13;;;22.35
13410;BMP180;6775;49.574;11.170;2023-09-08T07:54:42;97904.25;;;22.45
13410;BMP180;6775;49.574;11.170;2023-09-08T07:57:10;97898.91;;;22.53
13410;BMP180;6775;49.574;11.170;2023-09-08T07:59:40;97901.66;;;22.66
13410;BMP180;6775;49.574;11.170;2023-09-08T08:02:08;97904.59;;;22.77
13410;BMP180;6775;49.574;11.170;2023-09-08T08:04:36;97903.34;;;22.94
13410;BMP180;6775;49.574;11.170;2023-09-08T08:07:04;97899.53;;;23.17
13410;BMP180;6775;49.574;11.170;2023-09-08T08:09:32;97903.50;;;23.34
13410;BMP180;6775;49.574;11.170;2023-09-08T08:12:00;97897.38;;;23.54
13410;BMP180;6775;49.574;11.170;2023-09-08T08:14:28;97898.13;;;23.76
13410;BMP180;6775;49.574;11.170;2023-09-08T08:16:57;97897.63;;;23.93
13410;BMP180;6775;49.574;11.170;2023-09-08T08:19:26;97907.97;;;24.07
13410;BMP180;6775;49.574;11.170;2023-09-08T08:21:54;97894.25;;;24.05
13410;BMP180;6775;49.574;11.170;2023-09-08T08:24:24;97899.75;;;24.17
13410;BMP180;6775;49.574;11.170;2023-09-08T08:26:52;97901.25;;;24.45
13410;BMP180;6775;49.574;11.170;2023-09-08T08:29:20;97898.50;;;24.66
13410;BMP180;6775;49.574;11.170;2023-09-08T08:31:48;97895.09;;;24.85
13410;BMP180;6775;49.574;11.170;2023-09-08T08:34:17;97895.09;;;24.97
13410;BMP180;6775;49.574;11.170;2023-09-08T08:36:45;97901.22;;;25.11
13410;BMP180;6775;49.574;11.170;2023-09-08T08:39:13;97910.31;;;25.34
13410;BMP180;6775;49.574;11.170;2023-09-08T08:41:41;97892.47;;;25.55
13410;BMP180;6775;49.574;11.170;2023-09-08T08:44:09;97892.44;;;25.81
13410;BMP180;6775;49.574;11.170;2023-09-08T08:46:38;97897.84;;;25.99
13410;BMP180;6775;49.574;11.170;2023-09-08T08:49:09;97894.34;;;26.11
13410;BMP180;6775;49.574;11.170;2023-09-08T08:51:41;97895.91;;;26.32
13410;BMP180;6775;49.574;11.170;2023-09-08T08:54:11;97900.53;;;26.42
13410;BMP180;6775;49.574;11.170;2023-09-08T08:56:42;97897.75;;;26.62
13410;BMP180;6775;49.574;11.170;2023-09-08T08:59:11;97892.81;;;26.72
13410;BMP180;6775;49.574;11.170;2023-09-08T09:01:41;97893.88;;;27.01
13410;BMP180;6775;49.574;11.170;2023-09-08T09:04:10;97888.06;;;27.17
13410;BMP180;6775;49.574;11.170;2023-09-08T09:06:41;97886.75;;;27.26
13410;BMP180;6775;49.574;11.170;2023-09-08T09:09:09;97883.06;;;27.34
13410;BMP180;6775;49.574;11.170;2023-09-08T09:11:37;97880.47;;;27.27
13410;BMP180;6775;49.574;11.170;2023-09-08T09:14:05;97869.63;;;27.35
13410;BMP180;6775;49.574;11.170;2023-09-08T09:16:39;97875.63;;;27.66
13410;BMP180;6775;49.574;11.170;2023-09-08T09:19:08;97874.78;;;27.72
13410;BMP180;6775;49.574;11.170;2023-09-08T09:21:48;97870.13;;;27.68
13410;BMP180;6775;49.574;11.170;2023-09-08T09:24:30;97869.97;;;27.81
13410;BMP180;6775;49.574;11.170;2023-09-08T09:26:59;97868.50;;;27.85
13410;BMP180;6775;49.574;11.170;2023-09-08T09:29:28;97863.75;;;27.93
13410;BMP180;6775;49.574;11.170;2023-09-08T09:32:01;97868.22;;;27.75
13410;BMP180;6775;49.574;11.170;2023-09-08T09:34:30;97867.34;;;27.63
13410;BMP180;6775;49.574;11.170;2023-09-08T09:37:00;97861.56;;;27.72
13410;BMP180;6775;49.574;11.170;2023-09-08T09:39:31;97853.63;;;27.90
13410;BMP180;6775;49.574;11.170;2023-09-08T09:41:59;97852.44;;;28.04
13410;BMP180;6775;49.574;11.170;2023-09-08T09:44:28;97852.16;;;27.94
13410;BMP180;6775;49.574;11.170;2023-09-08T09:46:56;97858.56;;;27.87
13410;BMP180;6775;49.574;11.170;2023-09-08T09:49:24;97858.09;;;27.90
13410;BMP180;6775;49.574;11.170;2023-09-08T09:52:00;97848.72;;;27.76
13410;BMP180;6775;49.574;11.170;2023-09-08T09:54:29;97848.13;;;27.74
13410;BMP180;6775;49.574;11.170;2023-09-08T09:56:57;97843.44;;;27.76
13410;BMP180;6775;49.574;11.170;2023-09-08T09:59:26;97844.06;;;27.89
13410;BMP180;6775;49.574;11.170;2023-09-08T10:01:54;97839.53;;;27.96
13410;BMP180;6775;49.574;11.170;2023-09-08T10:04:23;97848.38;;;28.19
13410;BMP180;6775;49.574;11.170;2023-09-08T10:06:52;97840.31;;;28.44
13410;BMP180;6775;49.574;11.170;2023-09-08T10:09:23;97840.31;;;28.44
13410;BMP180;6775;49.574;11.170;2023-09-08T10:11:57;97841.16;;;28.44
13410;BMP180;6775;49.574;11.170;2023-09-08T10:14:28;97841.88;;;28.51
13410;BMP180;6775;49.574;11.170;2023-09-08T10:17:00;97840.31;;;28.44
13410;BMP180;6775;49.574;11.170;2023-09-08T10:19:30;97836.13;;;28.54
13410;BMP180;6775;49.574;11.170;2023-09-08T10:22:00;97835.19;;;28.89
13410;BMP180;6775;49.574;11.170;2023-09-08T10:24:34;97828.78;;;29.19
13410;BMP180;6775;49.574;11.170;2023-09-08T10:27:08;97822.47;;;29.43
13410;BMP180;6775;49.574;11.170;2023-09-08T10:29:36;97826.72;;;29.55
13410;BMP180;6775;49.574;11.170;2023-09-08T10:32:07;97827.16;;;29.75
13410;BMP180;6775;49.574;11.170;2023-09-08T10:34:36;97821.16;;;29.68
13410;BMP180;6775;49.574;11.170;2023-09-08T10:37:19;97822.63;;;29.76
13410;BMP180;6775;49.574;11.170;2023-09-08T10:39:49;97821.19;;;30.07
13410;BMP180;6775;49.574;11.170;2023-09-08T10:42:23;97816.72;;;30.36
13410;BMP180;6775;49.574;11.170;2023-09-08T10:44:57;97818.66;;;30.40
13410;BMP180;6775;49.574;11.170;2023-09-08T10:47:32;97813.25;;;30.35
13410;BMP180;6775;49.574;11.170;2023-09-08T10:50:02;97806.81;;;30.31
13410;BMP180;6775;49.574;11.170;2023-09-08T10:52:32;97806.09;;;30.08
13410;BMP180;6775;49.574;11.170;2023-09-08T10:55:04;97802.75;;;30.12
13410;BMP180;6775;49.574;11.170;2023-09-08T10:57:33;97799.13;;;29.91
13410;BMP180;6775;49.574;11.170;2023-09-08T11:00:05;97797.75;;;29.77
13410;BMP180;6775;49.574;11.170;2023-09-08T11:02:42;97791.47;;;30.05
13410;BMP180;6775;49.574;11.170;2023-09-08T11:05:14;97791.09;;;30.41
13410;BMP180;6775;49.574;11.170;2023-09-08T11:07:44;97795.28;;;30.37
13410;BMP180;6775;49.574;11.170;2023-09-08T11:10:13;97796.91;;;29.99
13410;BMP180;6775;49.574;11.170;2023-09-08T11:12:41;97795.75;;;30.06
13410;BMP180;6775;49.574;11.170;2023-09-08T11:15:10;97809.81;;;30.23
13410;BMP180;6775;49.574;11.170;2023-09-08T11:17:38;97800.28;;;30.50
13410;BMP180;6775;49.574;11.170;2023-09-08T11:20:09;97789.97;;;30.54
13410;BMP180;6775;49.574;11.170;2023-09-08T11:22:39;97795.16;;;30.60
13410;BMP180;6775;49.574;11.170;2023-09-08T11:25:09;97801.34;;;30.82
13410;BMP180;6775;49.574;11.170;2023-09-08T11:27:40;97792.78;;;30.91
13410;BMP180;6775;49.574;11.170;2023-09-08T11:30:08;97799.28;;;31.00
13410;BMP180;6775;49.574;11.170;2023-09-08T11:32:37;97790.59;;;31.05
13410;BMP180;6775;49.574;11.170;2023-09-08T11:35:07;97784.38;;;31.15
13410;BMP180;6775;49.574;11.170;2023-09-08T11:37:37;97790.56;;;31.21
13410;BMP180;6775;49.574;11.170;2023-09-08T11:40:08;97790.19;;;31.12
13410;BMP180;6775;49.574;11.170;2023-09-08T11:42:41;97787.69;;;31.06
13410;BMP180;6775;49.574;11.170;2023-09-08T11:45:13;97789.06;;;31.08
13410;BMP180;6775;49.574;11.170;2023-09-08T11:47:42;97792.19;;;30.89
13410;BMP180;6775;49.574;11.170;2023-09-08T11:50:11;97785.69;;;30.97
13410;BMP180;6775;49.574;11.170;2023-09-08T11:52:43;97784.63;;;31.14
13410;BMP180;6775;49.574;11.170;2023-09-08T11:55:12;97788.22;;;31.24
13410;BMP180;6775;49.574;11.170;2023-09-08T11:57:43;97783.41;;;31.21
13410;BMP180;6775;49.574;11.170;2023-09-08T12:00:13;97784.53;;;31.25
13410;BMP180;6775;49.574;11.170;2023-09-08T12:02:45;97781.00;;;31.20
13410;BMP180;6775;49.574;11.170;2023-09-08T12:05:14;97778.59;;;31.02
13410;BMP180;6775;49.574;11.170;2023-09-08T12:07:48;97783.91;;;30.86
13410;BMP180;6775;49.574;11.170;2023-09-08T12:10:16;97780.19;;;30.87
13410;BMP180;6775;49.574;11.170;2023-09-08T12:12:50;97771.22;;;31.04
13410;BMP180;6775;49.574;11.170;2023-09-08T12:15:30;97765.06;;;31.20
13410;BMP180;6775;49.574;11.170;2023-09-08T12:18:00;97771.31;;;31.30
13410;BMP180;6775;49.574;11.170;2023-09-08T12:20:29;97772.59;;;31.44
13410;BMP180;6775;49.574;11.170;2023-09-08T12:22:59;97770.31;;;31.53
13410;BMP180;6775;49.574;11.170;2023-09-08T12:25:28;97769.09;;;31.22
13410;BMP180;6775;49.574;11.170;2023-09-08T12:28:00;97754.78;;;30.91
13410;BMP180;6775;49.574;11.170;2023-09-08T12:30:28;97761.78;;;30.64
13410;BMP180;6775;49.574;11.170;2023-09-08T12:33:02;97762.97;;;30.40
13410;BMP180;6775;49.574;11.170;2023-09-08T12:35:30;97754.47;;;30.38
13410;BMP180;6775;49.574;11.170;2023-09-08T12:38:00;97752.06;;;30.53
13410;BMP180;6775;49.574;11.170;2023-09-08T12:40:32;97748.66;;;30.57
13410;BMP180;6775;49.574;11.170;2023-09-08T12:43:02;97748.19;;;30.60
13410;BMP180;6775;49.574;11.170;2023-09-08T12:45:50;97738.38;;;30.77
13410;BMP180;6775;49.574;11.170;2023-09-08T12:48:18;97742.81;;;30.88
13410;BMP180;6775;49.574;11.170;2023-09-08T12:50:47;97744.03;;;30.81
13410;BMP180;6775;49.574;11.170;2023-09-08T12:53:16;97740.97;;;30.40
13410;BMP180;6775;49.574;11.170;2023-09-08T12:55:44;97750.38;;;30.19
13410;BMP180;6775;49.574;11.170;2023-09-08T12:58:14;97745.69;;;30.10
13410;BMP180;6775;49.574;11.170;2023-09-08T13:00:43;97735.69;;;30.01
13410;BMP180;6775;49.574;11.170;2023-09-08T13:03:11;97733.16;;;30.05
13410;BMP180;6775;49.574;11.170;2023-09-08T13:05:39;97728.78;;;30.27
13410;BMP180;6775;49.574;11.170;2023-09-08T13:08:08;97734.03;;;30.39
13410;BMP180;6775;49.574;11.170;2023-09-08T13:10:36;97728.59;;;30.45
13410;BMP180;6775;49.574;11.170;2023-09-08T13:13:05;97727.44;;;30.57
13410;BMP180;6775;49.574;11.170;2023-09-08T13:15:35;97732.03;;;30.62
13410;BMP180;6775;49.574;11.170;2023-09-08T13:18:03;97726.09;;;30.55
13410;BMP180;6775;49.574;11.170;2023-09-08T13:20:31;97728.53;;;30.29
13410;BMP180;6775;49.574;11.170;2023-09-08T13:22:59;97726.25;;;30.04
13410;BMP180;6775;49.574;11.170;2023-09-08T13:25:28;97719.31;;;30.03
13410;BMP180;6775;49.574;11.170;2023-09-08T13:27:56;97720.63;;;30.17
13410;BMP180;6775;49.574;11.170;2023-09-08T13:30:25;97721.06;;;30.26
13410;BMP180;6775;49.574;11.170;2023-09-08T13:32:55;97715.19;;;30.24
13410;BMP180;6775;49.574;11.170;2023-09-08T13:35:23;97717.28;;;30.22
13410;BMP180;6775;49.574;11.170;2023-09-08T13:37:52;97722.50;;;30.33
13410;BMP180;6775;49.574;11.170;2023-09-08T13:40:20;97713.81;;;30.21
13410;BMP180;6775;49.574;11.170;2023-09-08T13:42:48;97716.31;;;30.11
13410;BMP180;6775;49.574;11.170;2023-09-08T13:45:16;97716.22;;;30.06
13410;BMP180;6775;49.574;11.170;2023-09-08T13:47:44;97713.09;;;30.09
13410;BMP180;6775;49.574;11.170;2023-09-08T13:50:15;97706.84;;;30.15
13410;BMP180;6775;49.574;11.170;2023-09-08T13:52:44;97710.03;;;30.17
13410;BMP180;6775;49.574;11.170;2023-09-08T13:55:14;97700.72;;;30.15
13410;BMP180;6775;49.574;11.170;2023-09-08T13:57:45;97705.09;;;30.21
13410;BMP180;6775;49.574;11.170;2023-09-08T14:00:16;97701.94;;;30.24
13410;BMP180;6775;49.574;11.170;2023-09-08T14:02:50;97704.75;;;30.17
13410;BMP180;6775;49.574;11.170;2023-09-08T14:05:26;97701.84;;;30.03
13410;BMP180;6775;49.574;11.170;2023-09-08T14:08:01;97696.66;;;29.96
13410;BMP180;6775;49.574;11.170;2023-09-08T14:10:41;97697.78;;;29.84
13410;BMP180;6775;49.574;11.170;2023-09-08T14:13:24;97693.84;;;29.75
13410;BMP180;6775;49.574;11.170;2023-09-08T14:15:52;97700.22;;;29.74
13410;BMP180;6775;49.574;11.170;2023-09-08T14:18:21;97691.78;;;29.77
13410;BMP180;6775;49.574;11.170;2023-09-08T14:20:50;97691.97;;;29.59